Terminal Aerodrome Forecast
Issued by NWS

Home | Current Version | Previous Version | Graphics & Text | Print | Product List | Glossary On
Versions: 1 2 3 4 5 6 7 8 9 10 11 12 13 14
000
FTUS43 KBIS 311100
TAFMOT
TAF
KMOT 311129Z 3112/0112 24003KT P6SM SCT120
     FM311800 10006KT P6SM SCT060 SCT100
     FM010200 08006KT P6SM SCT100=

USA.gov is the U.S. government's official web portal to all federal, state and local government web resources and services.